createdAt,value
2019-06-08T00:02:34.708Z,15.20
2019-06-08T00:07:39.104Z,15.10
2019-06-08T00:12:43.435Z,15.10
2019-06-08T00:17:47.892Z,15.10
2019-06-08T00:22:52.300Z,15.10
2019-06-08T00:27:56.606Z,15.10
2019-06-08T00:33:01.005Z,15.10
2019-06-08T00:38:05.337Z,15.10
2019-06-08T00:48:16.743Z,15.10
2019-06-08T00:53:27.384Z,15.10
2019-06-08T00:58:31.835Z,15.10
2019-06-08T01:03:36.290Z,15.10
2019-06-08T01:08:55.996Z,15.00
2019-06-08T01:14:00.584Z,14.90
2019-06-08T01:19:06.501Z,14.90
2019-06-08T01:24:10.881Z,14.90
2019-06-08T01:29:15.276Z,14.90
2019-06-08T01:34:20.568Z,14.90
2019-06-08T01:39:25.202Z,14.80
2019-06-08T01:44:30.040Z,14.80
2019-06-08T01:49:34.491Z,14.70
2019-06-08T01:54:39.071Z,14.70
2019-06-08T01:59:43.455Z,14.70
2019-06-08T02:04:50.438Z,14.60
2019-06-08T02:09:54.831Z,14.60
2019-06-08T02:14:59.139Z,14.50
2019-06-08T02:20:05.263Z,14.60
2019-06-08T02:25:09.992Z,14.50
2019-06-08T02:30:17.227Z,14.50
2019-06-08T02:35:21.674Z,14.60
2019-06-08T02:40:27.475Z,14.60
2019-06-08T02:45:34.059Z,14.50
2019-06-08T02:50:53.313Z,14.50
2019-06-08T02:55:57.700Z,14.50
2019-06-08T03:01:04.521Z,14.50
2019-06-08T03:06:08.812Z,14.50
2019-06-08T03:11:14.659Z,14.40
2019-06-08T03:16:19.069Z,14.40
2019-06-08T03:21:25.463Z,14.40
2019-06-08T03:26:29.850Z,14.40
2019-06-08T03:31:39.141Z,14.30
2019-06-08T03:36:53.564Z,14.30
2019-06-08T03:41:46.721Z,14.30
2019-06-08T03:46:51.206Z,14.30
2019-06-08T03:51:55.587Z,14.30
2019-06-08T03:57:00.007Z,14.20
2019-06-08T04:02:04.302Z,14.20
2019-06-08T04:07:08.679Z,14.20
2019-06-08T04:12:12.996Z,14.20
2019-06-08T04:17:17.639Z,14.10
2019-06-08T04:22:22.035Z,14.10
2019-06-08T04:27:26.729Z,14.10
2019-06-08T04:32:31.361Z,14.00
2019-06-08T04:37:35.675Z,13.70
2019-06-08T04:42:41.646Z,13.60
2019-06-08T04:47:47.765Z,13.70
2019-06-08T04:52:52.161Z,13.80
2019-06-08T04:57:56.458Z,13.80
2019-06-08T05:03:00.848Z,13.80
2019-06-08T05:08:05.308Z,13.80
2019-06-08T05:13:09.925Z,13.80
2019-06-08T05:18:15.914Z,13.80
2019-06-08T05:23:20.221Z,13.90
2019-06-08T05:28:25.180Z,13.90
2019-06-08T05:33:29.826Z,13.90
2019-06-08T05:38:34.225Z,13.90
2019-06-08T05:43:39.664Z,13.90
2019-06-08T05:48:44.049Z,13.90
2019-06-08T05:53:52.125Z,13.80
2019-06-08T06:29:38.928Z,13.80
2019-06-08T06:59:47.146Z,13.30
2019-06-08T07:04:12.924Z,13.30
2019-06-08T07:09:17.233Z,13.40
2019-06-08T07:14:21.546Z,13.40
2019-06-08T07:19:25.983Z,13.30
2019-06-08T07:24:30.433Z,13.30
2019-06-08T07:29:34.757Z,13.70
2019-06-08T07:34:41.147Z,14.20
2019-06-08T07:39:45.408Z,14.20
2019-06-08T07:44:50.832Z,14.30
2019-06-08T07:50:06.218Z,14.90
2019-06-08T07:55:11.000Z,15.40
2019-06-08T08:00:15.723Z,15.30
2019-06-08T08:05:20.044Z,15.10
2019-06-08T08:10:25.083Z,15.00
2019-06-08T08:15:29.487Z,15.20
2019-06-08T08:20:33.791Z,15.30
2019-06-08T08:25:38.185Z,15.60
2019-06-08T08:30:42.585Z,16.40
2019-06-08T08:35:48.267Z,16.40
2019-06-08T08:40:54.657Z,16.60
2019-06-08T08:46:01.813Z,17.00
2019-06-08T08:51:08.385Z,17.10
2019-06-08T08:56:12.531Z,17.30
2019-06-08T09:01:20.243Z,17.90
2019-06-08T09:06:22.971Z,18.10
2019-06-08T09:11:28.850Z,18.50
2019-06-08T09:16:33.469Z,18.90
2019-06-08T09:21:38.452Z,18.50
2019-06-08T09:26:42.876Z,17.90
2019-06-08T09:31:49.075Z,18.00
2019-06-08T09:36:54.959Z,18.10
2019-06-08T09:42:01.916Z,18.50
2019-06-08T09:47:12.161Z,18.60
2019-06-08T09:52:12.330Z,18.50
2019-06-08T09:57:18.900Z,18.20
2019-06-08T10:02:23.042Z,17.80
2019-06-08T10:07:31.082Z,17.80
2019-06-08T10:12:33.663Z,18.20
2019-06-08T10:17:38.195Z,18.80
2019-06-08T10:22:42.589Z,19.20
2019-06-08T10:27:46.881Z,19.80
2019-06-08T10:32:51.355Z,19.50
2019-06-08T10:37:58.540Z,19.60
2019-06-08T10:43:03.408Z,19.30
2019-06-08T10:48:09.603Z,19.00
2019-06-08T10:53:16.646Z,18.50
2019-06-08T10:58:21.510Z,19.10
2019-06-08T11:03:30.434Z,19.80
2019-06-08T11:08:32.082Z,19.00
2019-06-08T11:13:36.390Z,18.40
2019-06-08T11:18:40.780Z,17.80
2019-06-08T11:23:48.842Z,16.90
2019-06-08T11:28:51.456Z,16.20
2019-06-08T11:33:58.486Z,15.70
2019-06-08T11:39:02.562Z,15.40
2019-06-08T11:44:11.845Z,15.40
2019-06-08T11:49:15.160Z,15.70
2019-06-08T11:54:32.716Z,15.80
2019-06-08T11:59:28.518Z,16.70
2019-06-08T12:04:33.166Z,17.20
2019-06-08T12:09:37.556Z,16.60
2019-06-08T12:14:41.943Z,16.10
2019-06-08T12:19:47.589Z,16.00
2019-06-08T12:24:52.110Z,17.00
2019-06-08T12:29:58.775Z,17.60
2019-06-08T12:35:02.615Z,18.50
2019-06-08T12:40:09.799Z,18.70
2019-06-08T12:45:13.470Z,18.70
2019-06-08T12:50:18.234Z,19.10
2019-06-08T12:55:25.266Z,20.40
2019-06-08T13:00:29.104Z,20.60
2019-06-08T13:05:33.484Z,20.40
2019-06-08T13:10:38.345Z,21.70
2019-06-08T13:15:42.851Z,22.60
2019-06-08T13:20:51.383Z,23.20
2019-06-08T13:25:53.304Z,23.60
2019-06-08T13:30:58.103Z,24.20
2019-06-08T13:36:02.595Z,24.70
2019-06-08T13:41:08.790Z,25.50
2019-06-08T13:46:13.700Z,25.50
2019-06-08T13:51:20.729Z,26.20
2019-06-08T13:56:24.148Z,26.10
2019-06-08T14:01:30.833Z,26.00
2019-06-08T14:06:34.881Z,26.00
2019-06-08T14:11:39.262Z,26.20
2019-06-08T14:16:43.656Z,26.30
2019-06-08T14:21:47.959Z,25.80
2019-06-08T14:26:52.271Z,26.40
2019-06-08T14:31:57.753Z,27.30
2019-06-08T14:37:02.349Z,27.20
2019-06-08T14:42:08.299Z,27.40
2019-06-08T14:47:15.289Z,27.70
2019-06-08T14:52:22.197Z,27.90
2019-06-08T14:57:28.218Z,27.50
2019-06-08T15:02:32.576Z,28.00
2019-06-08T15:07:38.865Z,28.40
2019-06-08T15:12:43.067Z,29.00
2019-06-08T15:17:47.802Z,29.50
2019-06-08T15:22:52.139Z,28.80
2019-06-08T15:28:00.660Z,27.20
2019-06-08T15:33:02.733Z,25.20
2019-06-08T15:38:08.387Z,23.20
2019-06-08T15:43:12.891Z,21.50
2019-06-08T15:48:20.245Z,21.90
2019-06-08T15:53:24.361Z,23.30
2019-06-08T15:58:29.935Z,24.70
2019-06-08T16:03:35.343Z,25.70
2019-06-08T16:08:39.703Z,27.10
2019-06-08T16:13:44.012Z,27.90
2019-06-08T16:18:48.321Z,28.20
2019-06-08T16:23:52.706Z,28.30
2019-06-08T16:28:57.317Z,28.60
2019-06-08T16:34:01.698Z,28.50
2019-06-08T16:39:08.729Z,28.00
2019-06-08T16:44:13.046Z,28.40
2019-06-08T16:49:17.447Z,27.60
2019-06-08T16:54:21.765Z,27.30
2019-06-08T16:59:26.146Z,27.30
2019-06-08T17:04:31.213Z,25.00
2019-06-08T17:09:35.967Z,23.10
2019-06-08T17:14:40.822Z,23.80
2019-06-08T17:19:45.145Z,24.80
2019-06-08T17:24:49.797Z,25.30
2019-06-08T17:29:54.105Z,25.60
2019-06-08T17:34:58.468Z,25.70
2019-06-08T17:40:02.778Z,26.10
2019-06-08T17:45:09.108Z,26.20
2019-06-08T17:50:16.425Z,26.80
2019-06-08T17:55:20.812Z,27.20
2019-06-08T18:00:25.288Z,27.30
2019-06-08T18:05:29.969Z,27.00
2019-06-08T18:10:34.435Z,26.10
2019-06-08T18:15:40.594Z,25.30
2019-06-08T18:20:45.026Z,24.50
2019-06-08T18:25:50.083Z,24.30
2019-06-08T18:30:54.490Z,24.20
2019-06-08T18:35:58.883Z,23.20
2019-06-08T18:41:03.195Z,21.60
2019-06-08T18:46:07.857Z,20.20
2019-06-08T18:51:13.702Z,19.30
2019-06-08T18:56:18.371Z,18.50
2019-06-08T19:01:23.885Z,18.00
2019-06-08T19:06:28.930Z,17.60
2019-06-08T19:11:33.321Z,17.30
2019-06-08T19:16:40.848Z,17.10
2019-06-08T19:21:44.910Z,16.80
2019-06-08T19:26:49.461Z,16.60
2019-06-08T19:31:53.779Z,16.40
2019-06-08T19:36:58.086Z,16.20
2019-06-08T19:42:02.408Z,16.00
2019-06-08T19:47:08.063Z,15.90
2019-06-08T19:52:12.493Z,15.70
2019-06-08T19:57:18.409Z,15.60
2019-06-08T20:02:22.798Z,15.40
2019-06-08T20:07:27.986Z,15.20
2019-06-08T20:12:32.402Z,15.10
2019-06-08T20:17:37.248Z,14.90
2019-06-08T20:22:41.884Z,14.70
2019-06-08T20:27:49.880Z,14.60
2019-06-08T20:32:54.254Z,14.50
2019-06-08T20:37:58.402Z,14.30
2019-06-08T20:43:02.799Z,14.20
2019-06-08T20:48:07.199Z,13.90
2019-06-08T20:53:11.582Z,13.80
2019-06-08T20:58:17.721Z,13.60
2019-06-08T21:03:22.214Z,13.60
2019-06-08T21:08:28.190Z,13.50
2019-06-08T21:13:32.650Z,13.40
2019-06-08T21:18:37.970Z,13.20
2019-06-08T21:23:42.505Z,13.10
2019-06-08T21:28:49.839Z,13.00
2019-06-08T21:33:54.533Z,13.00
2019-06-08T21:39:02.205Z,13.00
2019-06-08T21:44:05.180Z,13.00
2019-06-08T21:49:09.777Z,12.90
2019-06-08T21:54:14.145Z,12.80
2019-06-08T21:59:18.461Z,12.70
2019-06-08T22:04:22.843Z,12.70
2019-06-08T22:09:28.537Z,12.60
2019-06-08T22:14:32.934Z,12.50
2019-06-08T22:19:38.062Z,12.40
2019-06-08T22:24:42.581Z,12.40
2019-06-08T22:29:48.446Z,12.30
2019-06-08T22:34:53.177Z,12.20
2019-06-08T22:39:59.678Z,12.20
2019-06-08T22:45:08.279Z,12.20
2019-06-08T22:50:14.985Z,12.00
2019-06-08T22:55:19.399Z,11.90
2019-06-08T23:00:24.884Z,11.80
2019-06-08T23:05:29.829Z,11.80
2019-06-08T23:49:38.000Z,11.10
2019-06-08T23:54:42.483Z,11.00
2019-06-08T23:59:47.805Z,10.90
